sensor_id;sensor_type;location;lat;lon;timestamp;temperature;humidity
64939;DHT22;51453;47.738;7.420;2022-10-16T00:00:56;15.00;99.90
64939;DHT22;51453;47.738;7.420;2022-10-16T00:03:22;15.00;99.90
64939;DHT22;51453;47.738;7.420;2022-10-16T00:05:48;14.90;99.90
64939;DHT22;51453;47.738;7.420;2022-10-16T00:08:14;15.00;99.90
64939;DHT22;51453;47.738;7.420;2022-10-16T00:10:40;15.00;99.90
64939;DHT22;51453;47.738;7.420;2022-10-16T00:13:07;14.90;99.90
64939;DHT22;51453;47.738;7.420;2022-10-16T00:15:34;14.90;99.90
64939;DHT22;51453;47.738;7.420;2022-10-16T00:18:02;14.90;99.90
64939;DHT22;51453;47.738;7.420;2022-10-16T00:20:28;14.90;99.90
64939;DHT22;51453;47.738;7.420;2022-10-16T00:22:56;14.90;99.90
64939;DHT22;51453;47.738;7.420;2022-10-16T00:25:23;14.90;99.90
64939;DHT22;51453;47.738;7.420;2022-10-16T00:27:48;15.00;99.90
64939;DHT22;51453;47.738;7.420;2022-10-16T00:30:14;15.00;99.90
64939;DHT22;51453;47.738;7.420;2022-10-16T00:32:40;14.90;99.90
64939;DHT22;51453;47.738;7.420;2022-10-16T00:35:06;14.90;99.90
64939;DHT22;51453;47.738;7.420;2022-10-16T00:37:32;14.90;99.90
64939;DHT22;51453;47.738;7.420;2022-10-16T00:39:57;14.90;99.90
64939;DHT22;51453;47.738;7.420;2022-10-16T00:42:23;14.90;99.90
64939;DHT22;51453;47.738;7.420;2022-10-16T00:44:53;14.80;99.90
64939;DHT22;51453;47.738;7.420;2022-10-16T00:47:36;14.80;99.90
64939;DHT22;51453;47.738;7.420;2022-10-16T00:50:31;14.80;99.90
64939;DHT22;51453;47.738;7.420;2022-10-16T00:52:58;14.70;99.90
64939;DHT22;51453;47.738;7.420;2022-10-16T00:55:26;14.70;99.90
64939;DHT22;51453;47.738;7.420;2022-10-16T00:57:54;14.60;99.90
64939;DHT22;51453;47.738;7.420;2022-10-16T01:00:23;14.60;99.90
64939;DHT22;51453;47.738;7.420;2022-10-16T01:02:53;14.60;99.90
64939;DHT22;51453;47.738;7.420;2022-10-16T01:05:20;14.50;99.90
64939;DHT22;51453;47.738;7.420;2022-10-16T01:07:58;14.50;99.90
64939;DHT22;51453;47.738;7.420;2022-10-16T01:13:10;14.40;99.90
64939;DHT22;51453;47.738;7.420;2022-10-16T01:15:54;14.40;99.90
64939;DHT22;51453;47.738;7.420;2022-10-16T01:20:57;14.40;99.90
64939;DHT22;51453;47.738;7.420;2022-10-16T01:31:31;14.50;99.90
64939;DHT22;51453;47.738;7.420;2022-10-16T01:34:21;14.40;99.90
64939;DHT22;51453;47.738;7.420;2022-10-16T01:36:53;14.40;99.90
64939;DHT22;51453;47.738;7.420;2022-10-16T01:39:23;14.40;99.90
64939;DHT22;51453;47.738;7.420;2022-10-16T01:41:57;14.40;99.90
64939;DHT22;51453;47.738;7.420;2022-10-16T01:44:29;14.50;99.90
64939;DHT22;51453;47.738;7.420;2022-10-16T01:46:56;14.50;99.90
64939;DHT22;51453;47.738;7.420;2022-10-16T01:49:24;14.50;99.90
64939;DHT22;51453;47.738;7.420;2022-10-16T01:51:54;14.50;99.90
64939;DHT22;51453;47.738;7.420;2022-10-16T01:54:23;14.50;99.90
64939;DHT22;51453;47.738;7.420;2022-10-16T01:56:51;14.50;99.90
64939;DHT22;51453;47.738;7.420;2022-10-16T01:59:20;14.50;99.90
64939;DHT22;51453;47.738;7.420;2022-10-16T02:01:50;14.50;99.90
64939;DHT22;51453;47.738;7.420;2022-10-16T02:04:19;14.50;99.90
64939;DHT22;51453;47.738;7.420;2022-10-16T02:06:45;14.60;99.90
64939;DHT22;51453;47.738;7.420;2022-10-16T02:09:11;14.60;99.90
64939;DHT22;51453;47.738;7.420;2022-10-16T02:11:37;14.60;99.90
64939;DHT22;51453;47.738;7.420;2022-10-16T02:14:05;14.60;99.90
64939;DHT22;51453;47.738;7.420;2022-10-16T02:16:41;14.70;99.90
64939;DHT22;51453;47.738;7.420;2022-10-16T02:19:07;14.70;99.90
64939;DHT22;51453;47.738;7.420;2022-10-16T02:21:43;14.70;99.90
64939;DHT22;51453;47.738;7.420;2022-10-16T02:29:35;14.70;99.90
64939;DHT22;51453;47.738;7.420;2022-10-16T02:32:05;14.70;99.90
64939;DHT22;51453;47.738;7.420;2022-10-16T02:34:33;14.70;99.90
64939;DHT22;51453;47.738;7.420;2022-10-16T02:37:01;14.70;99.90
64939;DHT22;51453;47.738;7.420;2022-10-16T02:39:29;14.80;99.90
64939;DHT22;51453;47.738;7.420;2022-10-16T02:41:55;14.70;99.90
64939;DHT22;51453;47.738;7.420;2022-10-16T02:44:20;14.70;99.90
64939;DHT22;51453;47.738;7.420;2022-10-16T02:46:46;14.70;99.90
64939;DHT22;51453;47.738;7.420;2022-10-16T02:49:12;14.70;99.90
64939;DHT22;51453;47.738;7.420;2022-10-16T02:51:37;14.70;99.90
64939;DHT22;51453;47.738;7.420;2022-10-16T02:54:03;14.70;99.90
64939;DHT22;51453;47.738;7.420;2022-10-16T02:56:29;14.70;99.90
64939;DHT22;51453;47.738;7.420;2022-10-16T02:58:55;14.70;99.90
64939;DHT22;51453;47.738;7.420;2022-10-16T03:01:21;14.70;99.90
64939;DHT22;51453;47.738;7.420;2022-10-16T03:03:46;14.80;99.90
64939;DHT22;51453;47.738;7.420;2022-10-16T03:06:12;14.80;99.90
64939;DHT22;51453;47.738;7.420;2022-10-16T03:08:38;14.70;99.90
64939;DHT22;51453;47.738;7.420;2022-10-16T03:11:04;14.70;99.90
64939;DHT22;51453;47.738;7.420;2022-10-16T03:13:30;14.80;99.90
64939;DHT22;51453;47.738;7.420;2022-10-16T03:15:55;14.70;99.90
64939;DHT22;51453;47.738;7.420;2022-10-16T03:18:21;14.70;99.90
64939;DHT22;51453;47.738;7.420;2022-10-16T03:20:47;14.80;99.90
64939;DHT22;51453;47.738;7.420;2022-10-16T03:23:12;14.70;99.90
64939;DHT22;51453;47.738;7.420;2022-10-16T03:25:38;14.70;99.90
64939;DHT22;51453;47.738;7.420;2022-10-16T03:28:04;14.70;99.90
64939;DHT22;51453;47.738;7.420;2022-10-16T03:30:29;14.60;99.90
64939;DHT22;51453;47.738;7.420;2022-10-16T03:32:55;14.60;99.90
64939;DHT22;51453;47.738;7.420;2022-10-16T03:35:22;14.60;99.90
64939;DHT22;51453;47.738;7.420;2022-10-16T03:37:49;14.60;99.90
64939;DHT22;51453;47.738;7.420;2022-10-16T03:40:15;14.70;99.90
64939;DHT22;51453;47.738;7.420;2022-10-16T03:42:42;14.60;99.90
64939;DHT22;51453;47.738;7.420;2022-10-16T03:45:08;14.60;99.90
64939;DHT22;51453;47.738;7.420;2022-10-16T03:47:34;14.70;99.90
64939;DHT22;51453;47.738;7.420;2022-10-16T03:50:00;14.60;99.90
64939;DHT22;51453;47.738;7.420;2022-10-16T03:52:26;14.60;99.90
64939;DHT22;51453;47.738;7.420;2022-10-16T03:54:52;14.60;99.90
64939;DHT22;51453;47.738;7.420;2022-10-16T03:57:17;14.70;99.90
64939;DHT22;51453;47.738;7.420;2022-10-16T03:59:43;14.70;99.90
64939;DHT22;51453;47.738;7.420;2022-10-16T04:02:09;14.70;99.90
64939;DHT22;51453;47.738;7.420;2022-10-16T04:04:35;14.70;99.90
64939;DHT22;51453;47.738;7.420;2022-10-16T04:07:00;14.70;99.90
64939;DHT22;51453;47.738;7.420;2022-10-16T04:09:26;14.70;99.90
64939;DHT22;51453;47.738;7.420;2022-10-16T04:11:52;14.70;99.90
64939;DHT22;51453;47.738;7.420;2022-10-16T04:14:18;14.70;99.90
64939;DHT22;51453;47.738;7.420;2022-10-16T04:16:44;14.70;99.90
64939;DHT22;51453;47.738;7.420;2022-10-16T04:19:10;14.70;99.90
64939;DHT22;51453;47.738;7.420;2022-10-16T04:21:36;14.60;99.90
64939;DHT22;51453;47.738;7.420;2022-10-16T04:24:02;14.60;99.90
64939;DHT22;51453;47.738;7.420;2022-10-16T04:26:28;14.60;99.90
64939;DHT22;51453;47.738;7.420;2022-10-16T04:28:54;14.60;99.90
64939;DHT22;51453;47.738;7.420;2022-10-16T04:31:20;14.60;99.90
64939;DHT22;51453;47.738;7.420;2022-10-16T04:33:46;14.60;99.90
64939;DHT22;51453;47.738;7.420;2022-10-16T04:36:12;14.60;99.90
64939;DHT22;51453;47.738;7.420;2022-10-16T04:38:39;14.60;99.90
64939;DHT22;51453;47.738;7.420;2022-10-16T04:41:06;14.50;99.90
64939;DHT22;51453;47.738;7.420;2022-10-16T04:43:32;14.50;99.90
64939;DHT22;51453;47.738;7.420;2022-10-16T04:45:58;14.50;99.90
64939;DHT22;51453;47.738;7.420;2022-10-16T04:48:23;14.50;99.90
64939;DHT22;51453;47.738;7.420;2022-10-16T04:50:49;14.50;99.90
64939;DHT22;51453;47.738;7.420;2022-10-16T04:53:15;14.50;99.90
64939;DHT22;51453;47.738;7.420;2022-10-16T04:55:41;14.50;99.90
64939;DHT22;51453;47.738;7.420;2022-10-16T04:58:07;14.50;99.90
64939;DHT22;51453;47.738;7.420;2022-10-16T05:00:34;14.50;99.90
64939;DHT22;51453;47.738;7.420;2022-10-16T05:03:00;14.50;99.90
64939;DHT22;51453;47.738;7.420;2022-10-16T05:05:26;14.40;99.90
64939;DHT22;51453;47.738;7.420;2022-10-16T05:07:52;14.50;99.90
64939;DHT22;51453;47.738;7.420;2022-10-16T05:10:17;14.50;99.90
64939;DHT22;51453;47.738;7.420;2022-10-16T05:12:43;14.50;99.90
64939;DHT22;51453;47.738;7.420;2022-10-16T05:15:09;14.60;99.90
64939;DHT22;51453;47.738;7.420;2022-10-16T05:17:35;14.60;99.90
64939;DHT22;51453;47.738;7.420;2022-10-16T05:20:01;14.60;99.90
64939;DHT22;51453;47.738;7.420;2022-10-16T05:22:27;14.60;99.90
64939;DHT22;51453;47.738;7.420;2022-10-16T05:24:52;14.60;99.90
64939;DHT22;51453;47.738;7.420;2022-10-16T05:27:18;14.50;99.90
64939;DHT22;51453;47.738;7.420;2022-10-16T05:29:48;14.50;99.90
64939;DHT22;51453;47.738;7.420;2022-10-16T05:32:18;14.50;99.90
64939;DHT22;51453;47.738;7.420;2022-10-16T05:34:44;14.50;99.90
64939;DHT22;51453;47.738;7.420;2022-10-16T05:37:11;14.50;99.90
64939;DHT22;51453;47.738;7.420;2022-10-16T05:39:37;14.50;99.90
64939;DHT22;51453;47.738;7.420;2022-10-16T05:42:04;14.50;99.90
64939;DHT22;51453;47.738;7.420;2022-10-16T05:44:30;14.60;99.90
64939;DHT22;51453;47.738;7.420;2022-10-16T05:46:55;14.60;99.90
64939;DHT22;51453;47.738;7.420;2022-10-16T05:49:21;14.60;99.90
64939;DHT22;51453;47.738;7.420;2022-10-16T05:51:47;14.60;99.90
64939;DHT22;51453;47.738;7.420;2022-10-16T05:54:12;14.70;99.90
64939;DHT22;51453;47.738;7.420;2022-10-16T05:56:38;14.70;99.90
64939;DHT22;51453;47.738;7.420;2022-10-16T05:59:05;14.70;99.90
64939;DHT22;51453;47.738;7.420;2022-10-16T06:01:31;14.70;99.90
64939;DHT22;51453;47.738;7.420;2022-10-16T06:03:57;14.70;99.90
64939;DHT22;51453;47.738;7.420;2022-10-16T06:06:25;14.70;99.90
64939;DHT22;51453;47.738;7.420;2022-10-16T06:08:52;14.80;99.90
64939;DHT22;51453;47.738;7.420;2022-10-16T06:11:28;14.80;99.90
64939;DHT22;51453;47.738;7.420;2022-10-16T06:13:56;14.80;99.90
64939;DHT22;51453;47.738;7.420;2022-10-16T06:16:24;14.90;99.90
64939;DHT22;51453;47.738;7.420;2022-10-16T06:18:51;14.90;99.90
64939;DHT22;51453;47.738;7.420;2022-10-16T06:21:19;14.90;99.90
64939;DHT22;51453;47.738;7.420;2022-10-16T06:23:45;15.00;99.90
64939;DHT22;51453;47.738;7.420;2022-10-16T06:26:14;15.00;99.90
64939;DHT22;51453;47.738;7.420;2022-10-16T06:28:40;15.10;99.90
64939;DHT22;51453;47.738;7.420;2022-10-16T06:31:07;15.10;99.90
64939;DHT22;51453;47.738;7.420;2022-10-16T06:33:33;15.10;99.90
64939;DHT22;51453;47.738;7.420;2022-10-16T06:36:04;15.20;99.90
64939;DHT22;51453;47.738;7.420;2022-10-16T06:38:31;15.30;99.90
64939;DHT22;51453;47.738;7.420;2022-10-16T06:40:57;15.30;99.90
64939;DHT22;51453;47.738;7.420;2022-10-16T06:43:23;15.40;99.90
64939;DHT22;51453;47.738;7.420;2022-10-16T06:45:54;15.40;99.90
64939;DHT22;51453;47.738;7.420;2022-10-16T06:48:20;15.40;99.90
64939;DHT22;51453;47.738;7.420;2022-10-16T06:51:03;15.50;99.90
64939;DHT22;51453;47.738;7.420;2022-10-16T06:53:32;15.50;99.90
64939;DHT22;51453;47.738;7.420;2022-10-16T06:56:05;15.50;99.90
64939;DHT22;51453;47.738;7.420;2022-10-16T06:58:31;15.50;99.90
64939;DHT22;51453;47.738;7.420;2022-10-16T07:00:57;15.50;99.90
64939;DHT22;51453;47.738;7.420;2022-10-16T07:03:22;15.60;99.90
64939;DHT22;51453;47.738;7.420;2022-10-16T07:05:48;15.70;99.90
64939;DHT22;51453;47.738;7.420;2022-10-16T07:08:14;15.80;99.90
64939;DHT22;51453;47.738;7.420;2022-10-16T07:10:39;15.80;99.90
64939;DHT22;51453;47.738;7.420;2022-10-16T07:13:05;15.90;99.90
64939;DHT22;51453;47.738;7.420;2022-10-16T07:15:33;15.90;99.90
64939;DHT22;51453;47.738;7.420;2022-10-16T07:17:59;15.90;99.90
64939;DHT22;51453;47.738;7.420;2022-10-16T07:20:25;16.00;99.90
64939;DHT22;51453;47.738;7.420;2022-10-16T07:22:51;16.00;99.90
64939;DHT22;51453;47.738;7.420;2022-10-16T07:25:17;16.10;99.90
64939;DHT22;51453;47.738;7.420;2022-10-16T07:27:43;16.20;99.90
64939;DHT22;51453;47.738;7.420;2022-10-16T07:30:09;16.30;99.90
64939;DHT22;51453;47.738;7.420;2022-10-16T07:32:35;16.30;99.90
64939;DHT22;51453;47.738;7.420;2022-10-16T07:35:00;16.40;99.90
64939;DHT22;51453;47.738;7.420;2022-10-16T07:37:26;16.40;99.90
64939;DHT22;51453;47.738;7.420;2022-10-16T07:39:52;16.50;99.90
64939;DHT22;51453;47.738;7.420;2022-10-16T07:42:17;16.50;99.90
64939;DHT22;51453;47.738;7.420;2022-10-16T07:44:43;16.60;99.90
64939;DHT22;51453;47.738;7.420;2022-10-16T07:47:09;16.50;99.90
64939;DHT22;51453;47.738;7.420;2022-10-16T07:49:35;16.60;99.90
64939;DHT22;51453;47.738;7.420;2022-10-16T07:52:00;16.50;99.90
64939;DHT22;51453;47.738;7.420;2022-10-16T07:54:26;16.60;99.90
64939;DHT22;51453;47.738;7.420;2022-10-16T07:56:51;16.70;99.90
64939;DHT22;51453;47.738;7.420;2022-10-16T07:59:17;16.80;99.90
64939;DHT22;51453;47.738;7.420;2022-10-16T08:01:43;17.00;99.90
64939;DHT22;51453;47.738;7.420;2022-10-16T08:04:10;17.20;99.90
64939;DHT22;51453;47.738;7.420;2022-10-16T08:06:39;17.40;99.90
64939;DHT22;51453;47.738;7.420;2022-10-16T08:09:06;17.60;99.90
64939;DHT22;51453;47.738;7.420;2022-10-16T08:11:32;17.70;99.90
64939;DHT22;51453;47.738;7.420;2022-10-16T08:13:58;17.80;99.90
64939;DHT22;51453;47.738;7.420;2022-10-16T08:16:24;17.80;99.90
64939;DHT22;51453;47.738;7.420;2022-10-16T08:18:50;17.90;99.90
64939;DHT22;51453;47.738;7.420;2022-10-16T08:21:18;18.10;99.90
64939;DHT22;51453;47.738;7.420;2022-10-16T08:23:44;18.20;99.90
64939;DHT22;51453;47.738;7.420;2022-10-16T08:26:10;18.30;99.90
64939;DHT22;51453;47.738;7.420;2022-10-16T08:28:36;18.40;99.90
64939;DHT22;51453;47.738;7.420;2022-10-16T08:31:09;18.50;99.90
64939;DHT22;51453;47.738;7.420;2022-10-16T08:33:36;18.60;99.90
64939;DHT22;51453;47.738;7.420;2022-10-16T08:36:03;18.70;99.90
64939;DHT22;51453;47.738;7.420;2022-10-16T08:38:29;18.70;99.90
64939;DHT22;51453;47.738;7.420;2022-10-16T08:49:02;19.20;99.90
64939;DHT22;51453;47.738;7.420;2022-10-16T08:51:34;19.40;99.90
64939;DHT22;51453;47.738;7.420;2022-10-16T08:54:05;19.60;99.90
64939;DHT22;51453;47.738;7.420;2022-10-16T08:56:31;19.70;99.90
64939;DHT22;51453;47.738;7.420;2022-10-16T08:58:59;19.80;99.90
64939;DHT22;51453;47.738;7.420;2022-10-16T09:02:08;20.00;99.90
64939;DHT22;51453;47.738;7.420;2022-10-16T09:06:54;20.20;99.90
64939;DHT22;51453;47.738;7.420;2022-10-16T09:20:03;20.00;99.90
64939;DHT22;51453;47.738;7.420;2022-10-16T09:22:31;19.90;99.90
64939;DHT22;51453;47.738;7.420;2022-10-16T09:25:00;19.80;99.90
64939;DHT22;51453;47.738;7.420;2022-10-16T09:27:35;19.70;99.90
64939;DHT22;51453;47.738;7.420;2022-10-16T09:30:06;19.70;99.90
64939;DHT22;51453;47.738;7.420;2022-10-16T09:32:35;19.70;99.90
64939;DHT22;51453;47.738;7.420;2022-10-16T09:35:04;19.70;99.90
64939;DHT22;51453;47.738;7.420;2022-10-16T09:37:36;19.70;99.90
64939;DHT22;51453;47.738;7.420;2022-10-16T09:40:02;19.70;99.90
64939;DHT22;51453;47.738;7.420;2022-10-16T09:42:34;19.70;99.90
64939;DHT22;51453;47.738;7.420;2022-10-16T09:45:01;19.70;99.90
64939;DHT22;51453;47.738;7.420;2022-10-16T09:47:28;19.60;99.90
64939;DHT22;51453;47.738;7.420;2022-10-16T09:50:27;19.60;99.90
64939;DHT22;51453;47.738;7.420;2022-10-16T09:53:13;19.70;99.90
64939;DHT22;51453;47.738;7.420;2022-10-16T09:55:53;19.80;99.90
64939;DHT22;51453;47.738;7.420;2022-10-16T09:58:21;19.90;99.90
64939;DHT22;51453;47.738;7.420;2022-10-16T10:00:53;20.00;99.90
64939;DHT22;51453;47.738;7.420;2022-10-16T10:03:39;20.10;99.90
64939;DHT22;51453;47.738;7.420;2022-10-16T10:08:56;20.20;99.90
64939;DHT22;51453;47.738;7.420;2022-10-16T10:11:44;20.30;99.90
64939;DHT22;51453;47.738;7.420;2022-10-16T10:14:18;20.40;99.90
64939;DHT22;51453;47.738;7.420;2022-10-16T10:16:45;20.60;99.90
64939;DHT22;51453;47.738;7.420;2022-10-16T10:19:20;20.80;99.90
64939;DHT22;51453;47.738;7.420;2022-10-16T10:21:46;20.80;99.90
64939;DHT22;51453;47.738;7.420;2022-10-16T10:24:17;20.90;99.90
64939;DHT22;51453;47.738;7.420;2022-10-16T10:29:57;21.00;99.90
64939;DHT22;51453;47.738;7.420;2022-10-16T10:32:30;21.10;99.90
64939;DHT22;51453;47.738;7.420;2022-10-16T10:41:05;21.20;99.90
64939;DHT22;51453;47.738;7.420;2022-10-16T10:46:13;21.20;99.90
64939;DHT22;51453;47.738;7.420;2022-10-16T10:52:06;21.30;99.90
64939;DHT22;51453;47.738;7.420;2022-10-16T10:54:41;21.30;99.90
64939;DHT22;51453;47.738;7.420;2022-10-16T11:05:48;21.30;99.90
64939;DHT22;51453;47.738;7.420;2022-10-16T11:08:35;21.40;99.90
64939;DHT22;51453;47.738;7.420;2022-10-16T11:11:14;21.50;99.90
64939;DHT22;51453;47.738;7.420;2022-10-16T11:14:02;21.60;99.90
64939;DHT22;51453;47.738;7.420;2022-10-16T11:16:54;21.70;99.90
64939;DHT22;51453;47.738;7.420;2022-10-16T11:28:08;21.70;99.90
64939;DHT22;51453;47.738;7.420;2022-10-16T11:30:50;21.70;99.90
64939;DHT22;51453;47.738;7.420;2022-10-16T11:35:51;21.70;99.90
64939;DHT22;51453;47.738;7.420;2022-10-16T11:46:42;21.60;99.90
64939;DHT22;51453;47.738;7.420;2022-10-16T11:49:09;21.60;99.90
64939;DHT22;51453;47.738;7.420;2022-10-16T11:51:40;21.60;99.90
64939;DHT22;51453;47.738;7.420;2022-10-16T11:57:24;21.80;99.90
64939;DHT22;51453;47.738;7.420;2022-10-16T12:00:45;21.80;99.90
64939;DHT22;51453;47.738;7.420;2022-10-16T12:03:15;21.90;99.90
64939;DHT22;51453;47.738;7.420;2022-10-16T12:08:46;22.00;99.90
64939;DHT22;51453;47.738;7.420;2022-10-16T12:14:03;22.20;99.90
64939;DHT22;51453;47.738;7.420;2022-10-16T12:16:29;22.30;99.90
64939;DHT22;51453;47.738;7.420;2022-10-16T12:19:13;22.30;99.90
64939;DHT22;51453;47.738;7.420;2022-10-16T12:21:39;22.40;99.90
64939;DHT22;51453;47.738;7.420;2022-10-16T12:24:06;22.30;99.90
64939;DHT22;51453;47.738;7.420;2022-10-16T12:26:33;22.40;99.90
64939;DHT22;51453;47.738;7.420;2022-10-16T12:31:57;22.70;99.90
64939;DHT22;51453;47.738;7.420;2022-10-16T12:34:39;22.80;99.90
64939;DHT22;51453;47.738;7.420;2022-10-16T12:37:35;22.90;99.90
64939;DHT22;51453;47.738;7.420;2022-10-16T12:40:13;22.90;99.90
64939;DHT22;51453;47.738;7.420;2022-10-16T12:42:39;23.00;99.90
64939;DHT22;51453;47.738;7.420;2022-10-16T12:45:28;22.90;99.90
64939;DHT22;51453;47.738;7.420;2022-10-16T12:47:55;22.70;99.90
64939;DHT22;51453;47.738;7.420;2022-10-16T12:50:25;22.60;99.90
64939;DHT22;51453;47.738;7.420;2022-10-16T12:52:51;22.60;99.90
64939;DHT22;51453;47.738;7.420;2022-10-16T12:55:19;22.50;99.90
64939;DHT22;51453;47.738;7.420;2022-10-16T13:00:50;22.40;99.90
64939;DHT22;51453;47.738;7.420;2022-10-16T13:03:28;22.40;99.90
64939;DHT22;51453;47.738;7.420;2022-10-16T13:17:29;22.40;99.90
64939;DHT22;51453;47.738;7.420;2022-10-16T13:20:01;22.40;99.90
64939;DHT22;51453;47.738;7.420;2022-10-16T13:22:35;22.40;99.90
64939;DHT22;51453;47.738;7.420;2022-10-16T13:28:19;22.30;99.90
64939;DHT22;51453;47.738;7.420;2022-10-16T13:30:54;22.30;99.90
64939;DHT22;51453;47.738;7.420;2022-10-16T13:35:54;22.40;99.90
64939;DHT22;51453;47.738;7.420;2022-10-16T13:38:22;22.40;99.90
64939;DHT22;51453;47.738;7.420;2022-10-16T13:40:54;22.40;99.90
64939;DHT22;51453;47.738;7.420;2022-10-16T13:46:12;22.50;99.90
64939;DHT22;51453;47.738;7.420;2022-10-16T13:48:39;22.50;99.90
64939;DHT22;51453;47.738;7.420;2022-10-16T13:51:11;22.60;99.90
64939;DHT22;51453;47.738;7.420;2022-10-16T13:53:37;22.70;99.90
64939;DHT22;51453;47.738;7.420;2022-10-16T13:56:05;22.60;99.90
64939;DHT22;51453;47.738;7.420;2022-10-16T13:58:31;22.60;99.90
64939;DHT22;51453;47.738;7.420;2022-10-16T14:03:41;22.40;99.90
64939;DHT22;51453;47.738;7.420;2022-10-16T14:06:13;22.30;99.90
64939;DHT22;51453;47.738;7.420;2022-10-16T14:08:43;22.30;99.90
64939;DHT22;51453;47.738;7.420;2022-10-16T14:11:10;22.40;99.90
64939;DHT22;51453;47.738;7.420;2022-10-16T14:13:43;22.50;99.90
64939;DHT22;51453;47.738;7.420;2022-10-16T14:16:17;22.50;99.90
64939;DHT22;51453;47.738;7.420;2022-10-16T14:18:46;22.50;99.90
64939;DHT22;51453;47.738;7.420;2022-10-16T14:21:15;22.50;99.90
64939;DHT22;51453;47.738;7.420;2022-10-16T14:23:42;22.50;99.90
64939;DHT22;51453;47.738;7.420;2022-10-16T14:28:35;22.40;99.90
64939;DHT22;51453;47.738;7.420;2022-10-16T14:31:13;22.50;99.90
64939;DHT22;51453;47.738;7.420;2022-10-16T14:33:45;22.50;99.90
64939;DHT22;51453;47.738;7.420;2022-10-16T14:36:13;22.40;99.90
64939;DHT22;51453;47.738;7.420;2022-10-16T14:38:42;22.50;99.90
64939;DHT22;51453;47.738;7.420;2022-10-16T14:41:09;22.50;99.90
64939;DHT22;51453;47.738;7.420;2022-10-16T14:43:37;22.50;99.90
64939;DHT22;51453;47.738;7.420;2022-10-16T14:46:12;22.30;99.90
64939;DHT22;51453;47.738;7.420;2022-10-16T14:48:42;22.30;99.90
64939;DHT22;51453;47.738;7.420;2022-10-16T14:51:14;22.20;99.90
64939;DHT22;51453;47.738;7.420;2022-10-16T14:53:43;22.20;99.90
64939;DHT22;51453;47.738;7.420;2022-10-16T14:56:32;22.20;99.90
64939;DHT22;51453;47.738;7.420;2022-10-16T14:59:00;22.20;99.90
64939;DHT22;51453;47.738;7.420;2022-10-16T15:01:26;22.10;99.90
64939;DHT22;51453;47.738;7.420;2022-10-16T15:03:52;22.00;99.90
64939;DHT22;51453;47.738;7.420;2022-10-16T15:06:20;22.10;99.90
64939;DHT22;51453;47.738;7.420;2022-10-16T15:08:45;22.10;99.90
64939;DHT22;51453;47.738;7.420;2022-10-16T15:11:17;22.10;99.90
64939;DHT22;51453;47.738;7.420;2022-10-16T15:13:43;22.10;99.90
64939;DHT22;51453;47.738;7.420;2022-10-16T15:16:14;22.00;99.90
64939;DHT22;51453;47.738;7.420;2022-10-16T15:18:41;21.90;99.90
64939;DHT22;51453;47.738;7.420;2022-10-16T15:21:07;21.90;99.90
64939;DHT22;51453;47.738;7.420;2022-10-16T15:23:33;21.80;99.90
64939;DHT22;51453;47.738;7.420;2022-10-16T15:25:58;21.70;99.90
64939;DHT22;51453;47.738;7.420;2022-10-16T15:28:25;21.70;99.90
64939;DHT22;51453;47.738;7.420;2022-10-16T15:30:55;21.60;99.90
64939;DHT22;51453;47.738;7.420;2022-10-16T15:33:24;21.40;99.90
64939;DHT22;51453;47.738;7.420;2022-10-16T15:35:51;21.30;99.90
64939;DHT22;51453;47.738;7.420;2022-10-16T15:38:19;21.30;99.90
64939;DHT22;51453;47.738;7.420;2022-10-16T15:40:46;21.20;99.90
64939;DHT22;51453;47.738;7.420;2022-10-16T15:43:12;21.10;99.90
64939;DHT22;51453;47.738;7.420;2022-10-16T15:45:38;21.00;99.90
64939;DHT22;51453;47.738;7.420;2022-10-16T15:48:04;20.90;99.90
64939;DHT22;51453;47.738;7.420;2022-10-16T15:50:30;20.80;99.90
64939;DHT22;51453;47.738;7.420;2022-10-16T15:52:57;20.60;99.90
64939;DHT22;51453;47.738;7.420;2022-10-16T15:55:22;20.50;99.90
64939;DHT22;51453;47.738;7.420;2022-10-16T15:57:48;20.50;99.90
64939;DHT22;51453;47.738;7.420;2022-10-16T16:00:17;20.40;99.90
64939;DHT22;51453;47.738;7.420;2022-10-16T16:02:43;20.30;99.90
64939;DHT22;51453;47.738;7.420;2022-10-16T16:05:15;20.30;99.90
64939;DHT22;51453;47.738;7.420;2022-10-16T16:07:40;20.20;99.90
64939;DHT22;51453;47.738;7.420;2022-10-16T16:10:08;20.10;99.90
64939;DHT22;51453;47.738;7.420;2022-10-16T16:12:35;20.00;99.90
64939;DHT22;51453;47.738;7.420;2022-10-16T16:15:00;19.90;99.90
64939;DHT22;51453;47.738;7.420;2022-10-16T16:17:26;19.80;99.90
64939;DHT22;51453;47.738;7.420;2022-10-16T16:19:52;19.70;99.90
64939;DHT22;51453;47.738;7.420;2022-10-16T16:22:18;19.50;99.90
64939;DHT22;51453;47.738;7.420;2022-10-16T16:24:44;19.40;99.90
64939;DHT22;51453;47.738;7.420;2022-10-16T16:27:09;19.20;99.90
64939;DHT22;51453;47.738;7.420;2022-10-16T16:29:35;19.10;99.90
64939;DHT22;51453;47.738;7.420;2022-10-16T16:32:01;19.00;99.90
64939;DHT22;51453;47.738;7.420;2022-10-16T16:34:28;18.90;99.90
64939;DHT22;51453;47.738;7.420;2022-10-16T16:36:55;18.70;99.90
64939;DHT22;51453;47.738;7.420;2022-10-16T16:39:21;18.60;99.90
64939;DHT22;51453;47.738;7.420;2022-10-16T16:41:47;18.50;99.90
64939;DHT22;51453;47.738;7.420;2022-10-16T16:44:14;18.40;99.90
64939;DHT22;51453;47.738;7.420;2022-10-16T16:46:41;18.30;99.90
64939;DHT22;51453;47.738;7.420;2022-10-16T16:49:10;18.20;99.90
64939;DHT22;51453;47.738;7.420;2022-10-16T16:51:37;18.10;99.90
64939;DHT22;51453;47.738;7.420;2022-10-16T16:54:02;18.00;99.90
64939;DHT22;51453;47.738;7.420;2022-10-16T16:56:28;17.80;99.90
64939;DHT22;51453;47.738;7.420;2022-10-16T16:58:55;17.70;99.90
64939;DHT22;51453;47.738;7.420;2022-10-16T17:01:23;17.60;99.90
64939;DHT22;51453;47.738;7.420;2022-10-16T17:03:51;17.60;99.90
64939;DHT22;51453;47.738;7.420;2022-10-16T17:06:19;17.50;99.90
64939;DHT22;51453;47.738;7.420;2022-10-16T17:08:45;17.50;99.90
64939;DHT22;51453;47.738;7.420;2022-10-16T17:11:17;17.40;99.90
64939;DHT22;51453;47.738;7.420;2022-10-16T17:13:43;17.30;99.90
64939;DHT22;51453;47.738;7.420;2022-10-16T17:16:09;17.30;99.90
64939;DHT22;51453;47.738;7.420;2022-10-16T17:18:36;17.20;99.90
64939;DHT22;51453;47.738;7.420;2022-10-16T17:21:04;17.20;99.90
64939;DHT22;51453;47.738;7.420;2022-10-16T17:23:31;17.20;99.90
64939;DHT22;51453;47.738;7.420;2022-10-16T17:26:05;17.20;99.90
64939;DHT22;51453;47.738;7.420;2022-10-16T17:28:31;17.20;99.90
64939;DHT22;51453;47.738;7.420;2022-10-16T17:30:56;17.20;99.90
64939;DHT22;51453;47.738;7.420;2022-10-16T17:33:31;17.20;99.90
64939;DHT22;51453;47.738;7.420;2022-10-16T17:35:58;17.30;99.90
64939;DHT22;51453;47.738;7.420;2022-10-16T17:38:23;17.40;99.90
64939;DHT22;51453;47.738;7.420;2022-10-16T17:40:49;17.40;99.90
64939;DHT22;51453;47.738;7.420;2022-10-16T17:43:14;17.40;99.90
64939;DHT22;51453;47.738;7.420;2022-10-16T17:45:40;17.40;99.90